sensor_id;sensor_type;location;lat;lon;timestamp;temperature;humidity
16976;DHT22;8604;48.148;-1.786;2023-10-09T00:00:35;13.40;99.90
16976;DHT22;8604;48.148;-1.786;2023-10-09T00:03:18;13.40;99.90
16976;DHT22;8604;48.148;-1.786;2023-10-09T00:05:50;13.40;99.90
16976;DHT22;8604;48.148;-1.786;2023-10-09T00:08:20;13.20;99.90
16976;DHT22;8604;48.148;-1.786;2023-10-09T00:10:55;13.10;99.90
16976;DHT22;8604;48.148;-1.786;2023-10-09T00:13:24;13.10;99.90
16976;DHT22;8604;48.148;-1.786;2023-10-09T00:15:57;13.00;99.90
16976;DHT22;8604;48.148;-1.786;2023-10-09T00:18:28;13.00;99.90
16976;DHT22;8604;48.148;-1.786;2023-10-09T00:20:57;13.00;99.90
16976;DHT22;8604;48.148;-1.786;2023-10-09T00:23:38;13.00;99.90
16976;DHT22;8604;48.148;-1.786;2023-10-09T00:26:08;12.90;99.90
16976;DHT22;8604;48.148;-1.786;2023-10-09T00:28:47;12.90;99.90
16976;DHT22;8604;48.148;-1.786;2023-10-09T00:31:18;12.90;99.90
16976;DHT22;8604;48.148;-1.786;2023-10-09T00:33:57;12.90;99.90
16976;DHT22;8604;48.148;-1.786;2023-10-09T00:36:34;12.90;99.90
16976;DHT22;8604;48.148;-1.786;2023-10-09T00:39:18;12.80;99.90
16976;DHT22;8604;48.148;-1.786;2023-10-09T00:42:02;12.80;99.90
16976;DHT22;8604;48.148;-1.786;2023-10-09T00:44:34;12.80;99.90
16976;DHT22;8604;48.148;-1.786;2023-10-09T00:47:07;12.70;99.90
16976;DHT22;8604;48.148;-1.786;2023-10-09T00:49:52;12.60;99.90
16976;DHT22;8604;48.148;-1.786;2023-10-09T00:52:30;12.60;99.90
16976;DHT22;8604;48.148;-1.786;2023-10-09T00:55:05;12.60;99.90
16976;DHT22;8604;48.148;-1.786;2023-10-09T00:57:45;12.60;99.90
16976;DHT22;8604;48.148;-1.786;2023-10-09T01:00:24;12.60;99.90
16976;DHT22;8604;48.148;-1.786;2023-10-09T01:03:00;12.60;99.90
16976;DHT22;8604;48.148;-1.786;2023-10-09T01:05:47;12.60;99.90
16976;DHT22;8604;48.148;-1.786;2023-10-09T01:08:26;12.60;99.90
16976;DHT22;8604;48.148;-1.786;2023-10-09T01:10:58;12.50;99.90
16976;DHT22;8604;48.148;-1.786;2023-10-09T01:13:38;12.50;99.90
16976;DHT22;8604;48.148;-1.786;2023-10-09T01:16:21;12.40;99.90
16976;DHT22;8604;48.148;-1.786;2023-10-09T01:18:51;12.40;99.90
16976;DHT22;8604;48.148;-1.786;2023-10-09T01:21:20;12.30;99.90
16976;DHT22;8604;48.148;-1.786;2023-10-09T01:23:53;12.30;99.90
16976;DHT22;8604;48.148;-1.786;2023-10-09T01:26:33;12.30;99.90
16976;DHT22;8604;48.148;-1.786;2023-10-09T01:29:07;12.20;99.90
16976;DHT22;8604;48.148;-1.786;2023-10-09T01:31:38;12.20;99.90
16976;DHT22;8604;48.148;-1.786;2023-10-09T01:34:11;12.10;99.90
16976;DHT22;8604;48.148;-1.786;2023-10-09T01:36:41;12.10;99.90
16976;DHT22;8604;48.148;-1.786;2023-10-09T01:39:11;12.10;99.90
16976;DHT22;8604;48.148;-1.786;2023-10-09T01:41:50;12.10;99.90
16976;DHT22;8604;48.148;-1.786;2023-10-09T01:44:26;12.20;99.90
16976;DHT22;8604;48.148;-1.786;2023-10-09T01:46:57;12.10;99.90
16976;DHT22;8604;48.148;-1.786;2023-10-09T01:49:25;12.10;99.90
16976;DHT22;8604;48.148;-1.786;2023-10-09T01:51:59;12.00;99.90
16976;DHT22;8604;48.148;-1.786;2023-10-09T01:54:36;12.00;99.90
16976;DHT22;8604;48.148;-1.786;2023-10-09T01:57:05;12.00;99.90
16976;DHT22;8604;48.148;-1.786;2023-10-09T01:59:37;12.00;99.90
16976;DHT22;8604;48.148;-1.786;2023-10-09T02:02:11;11.90;99.90
16976;DHT22;8604;48.148;-1.786;2023-10-09T02:04:55;11.90;99.90
16976;DHT22;8604;48.148;-1.786;2023-10-09T02:07:34;11.90;99.90
16976;DHT22;8604;48.148;-1.786;2023-10-09T02:10:11;12.00;99.90
16976;DHT22;8604;48.148;-1.786;2023-10-09T02:12:49;12.00;99.90
16976;DHT22;8604;48.148;-1.786;2023-10-09T02:15:21;12.00;99.90
16976;DHT22;8604;48.148;-1.786;2023-10-09T02:18:09;12.00;99.90
16976;DHT22;8604;48.148;-1.786;2023-10-09T02:20:47;12.00;99.90
16976;DHT22;8604;48.148;-1.786;2023-10-09T02:23:23;11.90;99.90
16976;DHT22;8604;48.148;-1.786;2023-10-09T02:25:58;11.90;99.90
16976;DHT22;8604;48.148;-1.786;2023-10-09T02:28:31;11.80;99.90
16976;DHT22;8604;48.148;-1.786;2023-10-09T02:31:01;11.80;99.90
16976;DHT22;8604;48.148;-1.786;2023-10-09T02:33:37;11.70;99.90
16976;DHT22;8604;48.148;-1.786;2023-10-09T02:36:06;11.70;99.90
16976;DHT22;8604;48.148;-1.786;2023-10-09T02:38:35;11.70;99.90
16976;DHT22;8604;48.148;-1.786;2023-10-09T02:41:10;11.70;99.90
16976;DHT22;8604;48.148;-1.786;2023-10-09T02:43:55;11.60;99.90
16976;DHT22;8604;48.148;-1.786;2023-10-09T02:46:25;11.60;99.90
16976;DHT22;8604;48.148;-1.786;2023-10-09T02:49:02;11.60;99.90
16976;DHT22;8604;48.148;-1.786;2023-10-09T02:51:33;11.60;99.90
16976;DHT22;8604;48.148;-1.786;2023-10-09T02:54:08;11.60;99.90
16976;DHT22;8604;48.148;-1.786;2023-10-09T02:56:49;11.60;99.90
16976;DHT22;8604;48.148;-1.786;2023-10-09T02:59:24;11.60;99.90
16976;DHT22;8604;48.148;-1.786;2023-10-09T03:01:52;11.50;99.90
16976;DHT22;8604;48.148;-1.786;2023-10-09T03:04:21;11.50;99.90
16976;DHT22;8604;48.148;-1.786;2023-10-09T03:06:51;11.50;99.90
16976;DHT22;8604;48.148;-1.786;2023-10-09T03:09:20;11.50;99.90
16976;DHT22;8604;48.148;-1.786;2023-10-09T03:11:57;11.50;99.90
16976;DHT22;8604;48.148;-1.786;2023-10-09T03:14:31;11.40;99.90
16976;DHT22;8604;48.148;-1.786;2023-10-09T03:17:02;11.40;99.90
16976;DHT22;8604;48.148;-1.786;2023-10-09T03:19:32;11.40;99.90
16976;DHT22;8604;48.148;-1.786;2023-10-09T03:22:05;11.40;99.90
16976;DHT22;8604;48.148;-1.786;2023-10-09T03:24:37;11.40;99.90
16976;DHT22;8604;48.148;-1.786;2023-10-09T03:27:10;11.30;99.90
16976;DHT22;8604;48.148;-1.786;2023-10-09T03:29:38;11.30;99.90
16976;DHT22;8604;48.148;-1.786;2023-10-09T03:32:09;11.30;99.90
16976;DHT22;8604;48.148;-1.786;2023-10-09T03:34:38;11.30;99.90
16976;DHT22;8604;48.148;-1.786;2023-10-09T03:37:06;11.30;99.90
16976;DHT22;8604;48.148;-1.786;2023-10-09T03:39:48;11.20;99.90
16976;DHT22;8604;48.148;-1.786;2023-10-09T03:42:23;11.10;99.90
16976;DHT22;8604;48.148;-1.786;2023-10-09T03:44:52;11.00;99.90
16976;DHT22;8604;48.148;-1.786;2023-10-09T03:47:21;11.00;99.90
16976;DHT22;8604;48.148;-1.786;2023-10-09T03:49:51;11.00;99.90
16976;DHT22;8604;48.148;-1.786;2023-10-09T03:52:21;10.90;99.90
16976;DHT22;8604;48.148;-1.786;2023-10-09T03:54:54;11.00;99.90
16976;DHT22;8604;48.148;-1.786;2023-10-09T03:57:24;10.90;99.90
16976;DHT22;8604;48.148;-1.786;2023-10-09T03:59:53;10.90;99.90
16976;DHT22;8604;48.148;-1.786;2023-10-09T04:02:22;10.80;99.90
16976;DHT22;8604;48.148;-1.786;2023-10-09T04:04:51;10.90;99.90
16976;DHT22;8604;48.148;-1.786;2023-10-09T04:07:20;10.80;99.90
16976;DHT22;8604;48.148;-1.786;2023-10-09T04:09:48;10.80;99.90
16976;DHT22;8604;48.148;-1.786;2023-10-09T04:12:31;10.80;99.90
16976;DHT22;8604;48.148;-1.786;2023-10-09T04:15:01;10.70;99.90
16976;DHT22;8604;48.148;-1.786;2023-10-09T04:17:31;10.70;99.90
16976;DHT22;8604;48.148;-1.786;2023-10-09T04:20:04;10.70;99.90
16976;DHT22;8604;48.148;-1.786;2023-10-09T04:22:50;10.70;99.90
16976;DHT22;8604;48.148;-1.786;2023-10-09T04:25:19;10.70;99.90
16976;DHT22;8604;48.148;-1.786;2023-10-09T04:27:54;10.70;99.90
16976;DHT22;8604;48.148;-1.786;2023-10-09T04:30:38;10.70;99.90
16976;DHT22;8604;48.148;-1.786;2023-10-09T04:33:10;10.70;99.90
16976;DHT22;8604;48.148;-1.786;2023-10-09T04:36:00;10.70;99.90
16976;DHT22;8604;48.148;-1.786;2023-10-09T04:38:51;10.70;99.90
16976;DHT22;8604;48.148;-1.786;2023-10-09T04:41:57;10.70;99.90
16976;DHT22;8604;48.148;-1.786;2023-10-09T04:44:46;10.70;99.90
16976;DHT22;8604;48.148;-1.786;2023-10-09T04:47:35;10.70;99.90
16976;DHT22;8604;48.148;-1.786;2023-10-09T04:50:16;10.70;99.90
16976;DHT22;8604;48.148;-1.786;2023-10-09T04:52:58;10.70;99.90
16976;DHT22;8604;48.148;-1.786;2023-10-09T04:55:48;10.60;99.90
16976;DHT22;8604;48.148;-1.786;2023-10-09T04:58:23;10.60;99.90
16976;DHT22;8604;48.148;-1.786;2023-10-09T05:00:53;10.60;99.90
16976;DHT22;8604;48.148;-1.786;2023-10-09T05:03:40;10.60;99.90
16976;DHT22;8604;48.148;-1.786;2023-10-09T05:06:12;10.60;99.90
16976;DHT22;8604;48.148;-1.786;2023-10-09T05:09:10;10.60;99.90
16976;DHT22;8604;48.148;-1.786;2023-10-09T05:11:41;10.60;99.90
16976;DHT22;8604;48.148;-1.786;2023-10-09T05:14:38;10.50;99.90
16976;DHT22;8604;48.148;-1.786;2023-10-09T05:17:07;10.50;99.90
16976;DHT22;8604;48.148;-1.786;2023-10-09T05:19:43;10.40;99.90
16976;DHT22;8604;48.148;-1.786;2023-10-09T05:22:22;10.40;99.90
16976;DHT22;8604;48.148;-1.786;2023-10-09T05:25:05;10.40;99.90
16976;DHT22;8604;48.148;-1.786;2023-10-09T05:28:03;10.40;99.90
16976;DHT22;8604;48.148;-1.786;2023-10-09T05:30:52;10.50;99.90
16976;DHT22;8604;48.148;-1.786;2023-10-09T05:33:29;10.50;99.90
16976;DHT22;8604;48.148;-1.786;2023-10-09T05:36:02;10.60;99.90
16976;DHT22;8604;48.148;-1.786;2023-10-09T05:38:44;10.60;99.90
16976;DHT22;8604;48.148;-1.786;2023-10-09T05:41:15;10.50;99.90
16976;DHT22;8604;48.148;-1.786;2023-10-09T05:44:00;10.50;99.90
16976;DHT22;8604;48.148;-1.786;2023-10-09T05:46:48;10.50;99.90
16976;DHT22;8604;48.148;-1.786;2023-10-09T05:49:37;10.50;99.90
16976;DHT22;8604;48.148;-1.786;2023-10-09T05:52:13;10.50;99.90
16976;DHT22;8604;48.148;-1.786;2023-10-09T05:54:59;10.50;99.90
16976;DHT22;8604;48.148;-1.786;2023-10-09T05:58:08;10.50;99.90
16976;DHT22;8604;48.148;-1.786;2023-10-09T06:00:53;10.50;99.90
16976;DHT22;8604;48.148;-1.786;2023-10-09T06:04:08;10.40;99.90
16976;DHT22;8604;48.148;-1.786;2023-10-09T06:06:43;10.40;99.90
16976;DHT22;8604;48.148;-1.786;2023-10-09T06:09:14;10.40;99.90
16976;DHT22;8604;48.148;-1.786;2023-10-09T06:12:17;10.30;99.90
16976;DHT22;8604;48.148;-1.786;2023-10-09T06:15:03;10.30;99.90
16976;DHT22;8604;48.148;-1.786;2023-10-09T06:17:59;10.30;99.90
16976;DHT22;8604;48.148;-1.786;2023-10-09T06:20:48;10.30;99.90
16976;DHT22;8604;48.148;-1.786;2023-10-09T06:23:33;10.40;99.90
16976;DHT22;8604;48.148;-1.786;2023-10-09T06:26:15;10.40;99.90
16976;DHT22;8604;48.148;-1.786;2023-10-09T06:28:53;10.40;99.90
16976;DHT22;8604;48.148;-1.786;2023-10-09T06:31:35;10.40;99.90
16976;DHT22;8604;48.148;-1.786;2023-10-09T06:34:28;10.50;99.90
16976;DHT22;8604;48.148;-1.786;2023-10-09T06:37:02;10.50;99.90
16976;DHT22;8604;48.148;-1.786;2023-10-09T06:39:44;10.50;99.90
16976;DHT22;8604;48.148;-1.786;2023-10-09T06:42:36;10.50;99.90
16976;DHT22;8604;48.148;-1.786;2023-10-09T06:45:20;10.60;99.90
16976;DHT22;8604;48.148;-1.786;2023-10-09T06:47:50;10.60;99.90
16976;DHT22;8604;48.148;-1.786;2023-10-09T06:50:24;10.60;99.90
16976;DHT22;8604;48.148;-1.786;2023-10-09T06:52:52;10.70;99.90
16976;DHT22;8604;48.148;-1.786;2023-10-09T06:55:41;10.60;99.90
16976;DHT22;8604;48.148;-1.786;2023-10-09T06:58:18;10.70;99.90
16976;DHT22;8604;48.148;-1.786;2023-10-09T07:00:49;10.70;99.90
16976;DHT22;8604;48.148;-1.786;2023-10-09T07:03:38;10.70;99.90
16976;DHT22;8604;48.148;-1.786;2023-10-09T07:06:21;10.70;99.90
16976;DHT22;8604;48.148;-1.786;2023-10-09T07:08:53;10.80;99.90
16976;DHT22;8604;48.148;-1.786;2023-10-09T07:11:44;10.80;99.90
16976;DHT22;8604;48.148;-1.786;2023-10-09T07:14:30;10.90;99.90
16976;DHT22;8604;48.148;-1.786;2023-10-09T07:17:16;10.90;99.90
16976;DHT22;8604;48.148;-1.786;2023-10-09T07:19:52;11.00;99.90
16976;DHT22;8604;48.148;-1.786;2023-10-09T07:22:42;11.10;99.90
16976;DHT22;8604;48.148;-1.786;2023-10-09T07:25:41;11.20;99.90
16976;DHT22;8604;48.148;-1.786;2023-10-09T07:28:22;11.50;99.90
16976;DHT22;8604;48.148;-1.786;2023-10-09T07:31:19;12.00;99.90
16976;DHT22;8604;48.148;-1.786;2023-10-09T07:33:54;12.70;99.90
16976;DHT22;8604;48.148;-1.786;2023-10-09T07:36:26;13.30;99.90
16976;DHT22;8604;48.148;-1.786;2023-10-09T07:39:04;13.90;99.90
16976;DHT22;8604;48.148;-1.786;2023-10-09T07:41:42;14.50;99.90
16976;DHT22;8604;48.148;-1.786;2023-10-09T07:44:29;15.10;99.90
16976;DHT22;8604;48.148;-1.786;2023-10-09T07:47:05;15.70;99.90
16976;DHT22;8604;48.148;-1.786;2023-10-09T07:49:46;16.20;99.90
16976;DHT22;8604;48.148;-1.786;2023-10-09T07:52:24;16.80;99.90
16976;DHT22;8604;48.148;-1.786;2023-10-09T07:54:55;17.30;99.90
16976;DHT22;8604;48.148;-1.786;2023-10-09T07:57:41;17.80;99.90
16976;DHT22;8604;48.148;-1.786;2023-10-09T08:00:21;18.30;99.90
16976;DHT22;8604;48.148;-1.786;2023-10-09T08:03:52;18.80;99.90
16976;DHT22;8604;48.148;-1.786;2023-10-09T08:06:29;19.40;99.90
16976;DHT22;8604;48.148;-1.786;2023-10-09T08:09:07;19.90;99.90
16976;DHT22;8604;48.148;-1.786;2023-10-09T08:12:16;20.30;99.90
16976;DHT22;8604;48.148;-1.786;2023-10-09T08:15:03;20.80;99.90
16976;DHT22;8604;48.148;-1.786;2023-10-09T08:17:54;21.20;99.90
16976;DHT22;8604;48.148;-1.786;2023-10-09T08:20:22;21.70;99.90
16976;DHT22;8604;48.148;-1.786;2023-10-09T08:22:53;22.10;99.90
16976;DHT22;8604;48.148;-1.786;2023-10-09T08:25:24;22.40;99.90
16976;DHT22;8604;48.148;-1.786;2023-10-09T08:27:59;22.70;99.90
16976;DHT22;8604;48.148;-1.786;2023-10-09T08:30:41;23.00;99.90
16976;DHT22;8604;48.148;-1.786;2023-10-09T08:33:17;23.40;99.90
16976;DHT22;8604;48.148;-1.786;2023-10-09T08:36:23;23.70;99.90
16976;DHT22;8604;48.148;-1.786;2023-10-09T08:38:55;24.30;99.90
16976;DHT22;8604;48.148;-1.786;2023-10-09T08:41:25;24.50;99.90
16976;DHT22;8604;48.148;-1.786;2023-10-09T08:43:59;24.80;99.90
16976;DHT22;8604;48.148;-1.786;2023-10-09T08:46:31;25.10;99.90
16976;DHT22;8604;48.148;-1.786;2023-10-09T08:49:00;25.30;99.90
16976;DHT22;8604;48.148;-1.786;2023-10-09T08:51:28;25.60;99.90
16976;DHT22;8604;48.148;-1.786;2023-10-09T08:53:57;25.90;99.90
16976;DHT22;8604;48.148;-1.786;2023-10-09T08:56:26;26.20;99.90
16976;DHT22;8604;48.148;-1.786;2023-10-09T08:58:56;26.50;99.90
16976;DHT22;8604;48.148;-1.786;2023-10-09T09:01:26;26.70;99.90
16976;DHT22;8604;48.148;-1.786;2023-10-09T09:03:59;27.00;99.90
16976;DHT22;8604;48.148;-1.786;2023-10-09T09:06:36;27.30;99.90
16976;DHT22;8604;48.148;-1.786;2023-10-09T09:09:11;27.60;99.90
16976;DHT22;8604;48.148;-1.786;2023-10-09T09:11:42;28.10;99.90
16976;DHT22;8604;48.148;-1.786;2023-10-09T09:14:16;28.30;99.90
16976;DHT22;8604;48.148;-1.786;2023-10-09T09:16:50;28.40;99.90
16976;DHT22;8604;48.148;-1.786;2023-10-09T09:19:30;28.60;99.90
16976;DHT22;8604;48.148;-1.786;2023-10-09T09:22:00;28.90;99.90
16976;DHT22;8604;48.148;-1.786;2023-10-09T09:24:40;29.10;99.90
16976;DHT22;8604;48.148;-1.786;2023-10-09T09:27:15;29.40;99.90
16976;DHT22;8604;48.148;-1.786;2023-10-09T09:29:47;29.60;99.90
16976;DHT22;8604;48.148;-1.786;2023-10-09T09:32:31;29.80;99.90
16976;DHT22;8604;48.148;-1.786;2023-10-09T09:35:04;30.00;99.90
16976;DHT22;8604;48.148;-1.786;2023-10-09T09:37:52;30.20;99.90
16976;DHT22;8604;48.148;-1.786;2023-10-09T09:40:22;30.30;99.90
16976;DHT22;8604;48.148;-1.786;2023-10-09T09:43:02;30.40;99.90
16976;DHT22;8604;48.148;-1.786;2023-10-09T09:45:35;30.50;99.90
16976;DHT22;8604;48.148;-1.786;2023-10-09T09:48:06;30.70;99.90
16976;DHT22;8604;48.148;-1.786;2023-10-09T09:50:37;30.90;99.90
16976;DHT22;8604;48.148;-1.786;2023-10-09T09:53:11;31.20;99.90
16976;DHT22;8604;48.148;-1.786;2023-10-09T09:55:46;31.60;99.90
16976;DHT22;8604;48.148;-1.786;2023-10-09T09:58:19;31.70;99.90
16976;DHT22;8604;48.148;-1.786;2023-10-09T10:00:52;32.00;99.90
16976;DHT22;8604;48.148;-1.786;2023-10-09T10:03:26;32.20;99.90
16976;DHT22;8604;48.148;-1.786;2023-10-09T10:05:56;32.50;99.90
16976;DHT22;8604;48.148;-1.786;2023-10-09T10:08:25;32.70;99.90
16976;DHT22;8604;48.148;-1.786;2023-10-09T10:10:59;32.70;99.90
16976;DHT22;8604;48.148;-1.786;2023-10-09T10:13:55;33.10;99.90
16976;DHT22;8604;48.148;-1.786;2023-10-09T10:16:26;33.40;99.90
16976;DHT22;8604;48.148;-1.786;2023-10-09T10:19:04;33.60;99.90
16976;DHT22;8604;48.148;-1.786;2023-10-09T10:21:49;33.60;99.90
16976;DHT22;8604;48.148;-1.786;2023-10-09T10:24:47;33.60;99.90
16976;DHT22;8604;48.148;-1.786;2023-10-09T10:27:22;33.80;99.90
16976;DHT22;8604;48.148;-1.786;2023-10-09T10:30:28;34.10;99.90
16976;DHT22;8604;48.148;-1.786;2023-10-09T10:33:04;34.20;99.90
16976;DHT22;8604;48.148;-1.786;2023-10-09T10:35:41;34.10;99.90
16976;DHT22;8604;48.148;-1.786;2023-10-09T10:38:30;34.20;99.90
16976;DHT22;8604;48.148;-1.786;2023-10-09T10:41:14;34.30;99.90
16976;DHT22;8604;48.148;-1.786;2023-10-09T10:43:45;34.20;99.90
16976;DHT22;8604;48.148;-1.786;2023-10-09T10:46:27;34.50;99.90
16976;DHT22;8604;48.148;-1.786;2023-10-09T10:49:06;34.70;99.90
16976;DHT22;8604;48.148;-1.786;2023-10-09T10:51:45;34.70;99.90
16976;DHT22;8604;48.148;-1.786;2023-10-09T10:54:21;34.80;99.90
16976;DHT22;8604;48.148;-1.786;2023-10-09T10:57:17;34.60;99.90
16976;DHT22;8604;48.148;-1.786;2023-10-09T10:59:57;34.70;99.90
16976;DHT22;8604;48.148;-1.786;2023-10-09T11:03:04;34.70;99.90
16976;DHT22;8604;48.148;-1.786;2023-10-09T11:05:42;34.90;99.90
16976;DHT22;8604;48.148;-1.786;2023-10-09T11:08:24;34.70;99.90
16976;DHT22;8604;48.148;-1.786;2023-10-09T11:11:11;34.60;99.90
16976;DHT22;8604;48.148;-1.786;2023-10-09T11:13:42;34.40;99.90
16976;DHT22;8604;48.148;-1.786;2023-10-09T11:16:24;34.30;99.90
16976;DHT22;8604;48.148;-1.786;2023-10-09T11:19:10;34.40;99.90
16976;DHT22;8604;48.148;-1.786;2023-10-09T11:21:56;34.40;99.90
16976;DHT22;8604;48.148;-1.786;2023-10-09T11:24:46;34.40;99.90
16976;DHT22;8604;48.148;-1.786;2023-10-09T11:27:27;34.40;99.90
16976;DHT22;8604;48.148;-1.786;2023-10-09T11:30:00;34.50;99.90
16976;DHT22;8604;48.148;-1.786;2023-10-09T11:32:36;34.50;99.90
16976;DHT22;8604;48.148;-1.786;2023-10-09T11:35:13;34.50;99.90
16976;DHT22;8604;48.148;-1.786;2023-10-09T11:37:55;34.20;99.90
16976;DHT22;8604;48.148;-1.786;2023-10-09T11:40:31;34.00;99.90
16976;DHT22;8604;48.148;-1.786;2023-10-09T11:43:17;33.80;99.90
16976;DHT22;8604;48.148;-1.786;2023-10-09T11:45:44;33.60;99.90
16976;DHT22;8604;48.148;-1.786;2023-10-09T11:48:22;33.50;99.90
16976;DHT22;8604;48.148;-1.786;2023-10-09T11:50:58;33.20;99.90
16976;DHT22;8604;48.148;-1.786;2023-10-09T11:53:46;33.00;99.30
16976;DHT22;8604;48.148;-1.786;2023-10-09T11:56:18;33.10;99.70
16976;DHT22;8604;48.148;-1.786;2023-10-09T11:58:49;33.00;99.20
16976;DHT22;8604;48.148;-1.786;2023-10-09T12:01:18;33.10;99.10
16976;DHT22;8604;48.148;-1.786;2023-10-09T12:03:49;33.00;98.20
16976;DHT22;8604;48.148;-1.786;2023-10-09T12:06:20;32.80;96.60
16976;DHT22;8604;48.148;-1.786;2023-10-09T12:08:50;32.80;98.60
16976;DHT22;8604;48.148;-1.786;2023-10-09T12:11:22;32.80;97.80
16976;DHT22;8604;48.148;-1.786;2023-10-09T12:13:56;32.90;99.40
16976;DHT22;8604;48.148;-1.786;2023-10-09T12:16:28;32.90;99.10
16976;DHT22;8604;48.148;-1.786;2023-10-09T12:18:57;32.90;96.70
16976;DHT22;8604;48.148;-1.786;2023-10-09T12:21:26;32.60;96.10
16976;DHT22;8604;48.148;-1.786;2023-10-09T12:23:57;32.40;95.30
16976;DHT22;8604;48.148;-1.786;2023-10-09T12:26:30;32.20;96.60
16976;DHT22;8604;48.148;-1.786;2023-10-09T12:29:02;32.00;97.90
16976;DHT22;8604;48.148;-1.786;2023-10-09T12:31:38;31.90;96.60
16976;DHT22;8604;48.148;-1.786;2023-10-09T12:34:07;31.70;97.60
16976;DHT22;8604;48.148;-1.786;2023-10-09T12:36:35;31.70;97.10
16976;DHT22;8604;48.148;-1.786;2023-10-09T12:39:04;31.70;97.70
16976;DHT22;8604;48.148;-1.786;2023-10-09T12:41:35;31.60;97.90
16976;DHT22;8604;48.148;-1.786;2023-10-09T12:44:08;31.50;96.10
16976;DHT22;8604;48.148;-1.786;2023-10-09T12:46:42;31.40;95.90
16976;DHT22;8604;48.148;-1.786;2023-10-09T12:49:19;31.30;96.00
16976;DHT22;8604;48.148;-1.786;2023-10-09T12:51:52;31.10;97.60
16976;DHT22;8604;48.148;-1.786;2023-10-09T12:54:20;31.00;97.40
16976;DHT22;8604;48.148;-1.786;2023-10-09T12:56:56;30.90;98.60
16976;DHT22;8604;48.148;-1.786;2023-10-09T12:59:25;30.70;98.40
16976;DHT22;8604;48.148;-1.786;2023-10-09T13:01:53;30.60;97.90
16976;DHT22;8604;48.148;-1.786;2023-10-09T13:04:25;30.40;96.80
16976;DHT22;8604;48.148;-1.786;2023-10-09T13:07:00;30.30;97.90
16976;DHT22;8604;48.148;-1.786;2023-10-09T13:09:31;30.10;98.00
16976;DHT22;8604;48.148;-1.786;2023-10-09T13:12:04;30.00;98.50
16976;DHT22;8604;48.148;-1.786;2023-10-09T13:14:35;29.90;95.70
16976;DHT22;8604;48.148;-1.786;2023-10-09T13:17:04;29.60;97.90
16976;DHT22;8604;48.148;-1.786;2023-10-09T13:19:37;29.60;98.20
16976;DHT22;8604;48.148;-1.786;2023-10-09T13:22:05;29.40;97.00
16976;DHT22;8604;48.148;-1.786;2023-10-09T13:24:40;29.20;94.40
16976;DHT22;8604;48.148;-1.786;2023-10-09T13:27:10;29.10;96.60
16976;DHT22;8604;48.148;-1.786;2023-10-09T13:29:38;28.90;95.80
16976;DHT22;8604;48.148;-1.786;2023-10-09T13:32:08;28.80;95.10
16976;DHT22;8604;48.148;-1.786;2023-10-09T13:34:42;28.60;94.80
16976;DHT22;8604;48.148;-1.786;2023-10-09T13:37:12;28.50;94.10
16976;DHT22;8604;48.148;-1.786;2023-10-09T13:39:41;28.40;93.60
16976;DHT22;8604;48.148;-1.786;2023-10-09T13:42:21;28.40;91.80
16976;DHT22;8604;48.148;-1.786;2023-10-09T13:44:52;28.30;91.70
16976;DHT22;8604;48.148;-1.786;2023-10-09T13:47:22;28.30;85.50
16976;DHT22;8604;48.148;-1.786;2023-10-09T13:49:58;28.10;90.30
16976;DHT22;8604;48.148;-1.786;2023-10-09T13:52:27;28.10;90.40
16976;DHT22;8604;48.148;-1.786;2023-10-09T13:54:58;28.10;90.50
16976;DHT22;8604;48.148;-1.786;2023-10-09T13:57:43;28.00;92.10
16976;DHT22;8604;48.148;-1.786;2023-10-09T14:00:13;27.80;92.60
16976;DHT22;8604;48.148;-1.786;2023-10-09T14:02:59;27.70;92.20
16976;DHT22;8604;48.148;-1.786;2023-10-09T14:05:38;27.70;91.80
16976;DHT22;8604;48.148;-1.786;2023-10-09T14:08:20;27.60;93.30
16976;DHT22;8604;48.148;-1.786;2023-10-09T14:10:50;27.50;93.00
16976;DHT22;8604;48.148;-1.786;2023-10-09T14:13:19;27.40;92.40
16976;DHT22;8604;48.148;-1.786;2023-10-09T14:15:53;27.40;92.30
16976;DHT22;8604;48.148;-1.786;2023-10-09T14:18:23;27.30;94.00
16976;DHT22;8604;48.148;-1.786;2023-10-09T14:20:51;27.20;94.40
16976;DHT22;8604;48.148;-1.786;2023-10-09T14:23:23;27.20;93.20
16976;DHT22;8604;48.148;-1.786;2023-10-09T14:25:59;27.10;93.10
16976;DHT22;8604;48.148;-1.786;2023-10-09T14:28:30;27.00;93.30
16976;DHT22;8604;48.148;-1.786;2023-10-09T14:30:59;27.00;93.70
16976;DHT22;8604;48.148;-1.786;2023-10-09T14:33:31;26.90;92.90
16976;DHT22;8604;48.148;-1.786;2023-10-09T14:36:04;26.80;92.90
16976;DHT22;8604;48.148;-1.786;2023-10-09T14:38:34;26.70;94.00
16976;DHT22;8604;48.148;-1.786;2023-10-09T14:41:06;26.60;93.80
16976;DHT22;8604;48.148;-1.786;2023-10-09T14:43:40;26.50;93.50
16976;DHT22;8604;48.148;-1.786;2023-10-09T14:46:14;26.50;93.50
16976;DHT22;8604;48.148;-1.786;2023-10-09T14:48:43;26.40;94.10
16976;DHT22;8604;48.148;-1.786;2023-10-09T14:51:13;26.30;93.70
16976;DHT22;8604;48.148;-1.786;2023-10-09T14:53:42;26.20;93.80
16976;DHT22;8604;48.148;-1.786;2023-10-09T14:56:11;26.10;92.50
16976;DHT22;8604;48.148;-1.786;2023-10-09T14:58:43;26.10;93.30
16976;DHT22;8604;48.148;-1.786;2023-10-09T15:01:14;26.00;94.20
16976;DHT22;8604;48.148;-1.786;2023-10-09T15:03:46;25.90;92.60
16976;DHT22;8604;48.148;-1.786;2023-10-09T15:06:16;25.90;93.10
16976;DHT22;8604;48.148;-1.786;2023-10-09T15:08:45;25.80;92.90
16976;DHT22;8604;48.148;-1.786;2023-10-09T15:11:16;25.80;93.50
16976;DHT22;8604;48.148;-1.786;2023-10-09T15:13:46;25.70;93.80
16976;DHT22;8604;48.148;-1.786;2023-10-09T15:16:14;25.70;93.20
16976;DHT22;8604;48.148;-1.786;2023-10-09T15:18:43;25.60;94.30
16976;DHT22;8604;48.148;-1.786;2023-10-09T15:21:11;25.60;94.00
16976;DHT22;8604;48.148;-1.786;2023-10-09T15:23:39;25.50;94.00
16976;DHT22;8604;48.148;-1.786;2023-10-09T15:26:10;25.50;94.20
16976;DHT22;8604;48.148;-1.786;2023-10-09T15:28:42;25.40;94.50
16976;DHT22;8604;48.148;-1.786;2023-10-09T15:31:12;25.40;94.20
16976;DHT22;8604;48.148;-1.786;2023-10-09T15:33:43;25.40;94.30
16976;DHT22;8604;48.148;-1.786;2023-10-09T15:36:16;25.40;93.50
16976;DHT22;8604;48.148;-1.786;2023-10-09T15:38:45;25.40;94.50
16976;DHT22;8604;48.148;-1.786;2023-10-09T15:41:13;25.30;95.00
16976;DHT22;8604;48.148;-1.786;2023-10-09T15:43:42;25.20;94.10
16976;DHT22;8604;48.148;-1.786;2023-10-09T15:46:14;25.20;94.50
16976;DHT22;8604;48.148;-1.786;2023-10-09T15:48:43;25.10;94.90
16976;DHT22;8604;48.148;-1.786;2023-10-09T15:51:14;25.10;94.30
16976;DHT22;8604;48.148;-1.786;2023-10-09T15:53:43;25.00;94.30
16976;DHT22;8604;48.148;-1.786;2023-10-09T15:56:12;25.00;94.90
16976;DHT22;8604;48.148;-1.786;2023-10-09T15:58:41;24.90;95.10
16976;DHT22;8604;48.148;-1.786;2023-10-09T16:01:11;24.90;95.40
16976;DHT22;8604;48.148;-1.786;2023-10-09T16:03:47;24.80;95.50
16976;DHT22;8604;48.148;-1.786;2023-10-09T16:06:17;24.80;96.40
16976;DHT22;8604;48.148;-1.786;2023-10-09T16:08:47;24.70;96.30
16976;DHT22;8604;48.148;-1.786;2023-10-09T16:11:17;24.60;96.80
16976;DHT22;8604;48.148;-1.786;2023-10-09T16:13:46;24.60;97.40
16976;DHT22;8604;48.148;-1.786;2023-10-09T16:16:14;24.50;98.20
16976;DHT22;8604;48.148;-1.786;2023-10-09T16:18:43;24.50;98.90
16976;DHT22;8604;48.148;-1.786;2023-10-09T16:21:12;24.50;99.90
16976;DHT22;8604;48.148;-1.786;2023-10-09T16:23:41;24.30;99.90
16976;DHT22;8604;48.148;-1.786;2023-10-09T16:26:10;24.30;99.90